sensor_id;sensor_type;location;lat;lon;timestamp;pressure;altitude;pressure_sealevel;temperature
71960;BMP280;59832;51.146;14.024;2022-10-31T00:01:15;98815.56;;;9.33
71960;BMP280;59832;51.146;14.024;2022-10-31T00:03:42;98823.50;;;9.31
71960;BMP280;59832;51.146;14.024;2022-10-31T00:06:09;98824.75;;;9.25
71960;BMP280;59832;51.146;14.024;2022-10-31T00:08:36;98823.69;;;9.26
71960;BMP280;59832;51.146;14.024;2022-10-31T00:11:03;98809.63;;;9.29
71960;BMP280;59832;51.146;14.024;2022-10-31T00:13:34;98813.25;;;9.40
71960;BMP280;59832;51.146;14.024;2022-10-31T00:16:04;98812.28;;;9.32
71960;BMP280;59832;51.146;14.024;2022-10-31T00:18:33;98819.25;;;9.23
71960;BMP280;59832;51.146;14.024;2022-10-31T00:21:02;98820.59;;;9.21
71960;BMP280;59832;51.146;14.024;2022-10-31T00:23:29;98819.91;;;9.32
71960;BMP280;59832;51.146;14.024;2022-10-31T00:26:03;98820.97;;;9.31
71960;BMP280;59832;51.146;14.024;2022-10-31T00:28:33;98820.16;;;9.19
71960;BMP280;59832;51.146;14.024;2022-10-31T00:31:01;98823.97;;;9.13
71960;BMP280;59832;51.146;14.024;2022-10-31T00:33:28;98824.28;;;9.11
71960;BMP280;59832;51.146;14.024;2022-10-31T00:35:59;98821.75;;;9.11
71960;BMP280;59832;51.146;14.024;2022-10-31T00:38:27;98827.47;;;9.08
71960;BMP280;59832;51.146;14.024;2022-10-31T00:40:54;98830.31;;;9.07
71960;BMP280;59832;51.146;14.024;2022-10-31T00:43:21;98829.25;;;9.07
71960;BMP280;59832;51.146;14.024;2022-10-31T00:45:50;98824.50;;;9.06
71960;BMP280;59832;51.146;14.024;2022-10-31T00:48:17;98826.38;;;8.97
71960;BMP280;59832;51.146;14.024;2022-10-31T00:50:46;98824.59;;;8.97
71960;BMP280;59832;51.146;14.024;2022-10-31T00:53:16;98828.16;;;8.96
71960;BMP280;59832;51.146;14.024;2022-10-31T00:55:44;98825.03;;;8.91
71960;BMP280;59832;51.146;14.024;2022-10-31T00:58:11;98834.59;;;8.94
71960;BMP280;59832;51.146;14.024;2022-10-31T01:00:42;98830.41;;;8.98
71960;BMP280;59832;51.146;14.024;2022-10-31T01:03:14;98832.28;;;9.01
71960;BMP280;59832;51.146;14.024;2022-10-31T01:05:41;98833.56;;;8.95
71960;BMP280;59832;51.146;14.024;2022-10-31T01:08:08;98830.78;;;8.88
71960;BMP280;59832;51.146;14.024;2022-10-31T01:10:35;98830.63;;;8.84
71960;BMP280;59832;51.146;14.024;2022-10-31T01:13:02;98830.88;;;8.91
71960;BMP280;59832;51.146;14.024;2022-10-31T01:15:28;98834.44;;;8.78
71960;BMP280;59832;51.146;14.024;2022-10-31T01:17:55;98838.63;;;8.74
71960;BMP280;59832;51.146;14.024;2022-10-31T01:20:25;98832.66;;;8.79
71960;BMP280;59832;51.146;14.024;2022-10-31T01:22:52;98832.06;;;8.73
71960;BMP280;59832;51.146;14.024;2022-10-31T01:25:19;98835.47;;;8.77
71960;BMP280;59832;51.146;14.024;2022-10-31T01:27:46;98828.16;;;8.76
71960;BMP280;59832;51.146;14.024;2022-10-31T01:30:13;98841.97;;;8.66
71960;BMP280;59832;51.146;14.024;2022-10-31T01:32:39;98840.81;;;8.64
71960;BMP280;59832;51.146;14.024;2022-10-31T01:35:06;98836.03;;;8.62
71960;BMP280;59832;51.146;14.024;2022-10-31T01:37:33;98828.84;;;8.64
71960;BMP280;59832;51.146;14.024;2022-10-31T01:40:00;98837.19;;;8.65
71960;BMP280;59832;51.146;14.024;2022-10-31T01:42:27;98829.28;;;8.66
71960;BMP280;59832;51.146;14.024;2022-10-31T01:44:59;98823.75;;;8.64
71960;BMP280;59832;51.146;14.024;2022-10-31T01:47:33;98832.28;;;8.68
71960;BMP280;59832;51.146;14.024;2022-10-31T01:50:13;98829.78;;;8.59
71960;BMP280;59832;51.146;14.024;2022-10-31T01:52:48;98834.53;;;8.61
71960;BMP280;59832;51.146;14.024;2022-10-31T01:55:21;98824.47;;;8.52
71960;BMP280;59832;51.146;14.024;2022-10-31T01:57:58;98832.50;;;8.54
71960;BMP280;59832;51.146;14.024;2022-10-31T02:00:26;98829.97;;;8.54
71960;BMP280;59832;51.146;14.024;2022-10-31T02:02:53;98834.59;;;8.52
71960;BMP280;59832;51.146;14.024;2022-10-31T02:05:25;98836.84;;;8.54
71960;BMP280;59832;51.146;14.024;2022-10-31T02:07:55;98838.75;;;8.57
71960;BMP280;59832;51.146;14.024;2022-10-31T02:10:24;98835.53;;;8.48
71960;BMP280;59832;51.146;14.024;2022-10-31T02:12:53;98832.34;;;8.59
71960;BMP280;59832;51.146;14.024;2022-10-31T02:15:24;98836.53;;;8.55
71960;BMP280;59832;51.146;14.024;2022-10-31T02:17:51;98836.22;;;8.57
71960;BMP280;59832;51.146;14.024;2022-10-31T02:20:42;98841.41;;;8.60
71960;BMP280;59832;51.146;14.024;2022-10-31T02:36:43;98841.81;;;8.42
71960;BMP280;59832;51.146;14.024;2022-10-31T02:39:27;98847.53;;;8.39
71960;BMP280;59832;51.146;14.024;2022-10-31T02:42:12;98843.81;;;8.36
71960;BMP280;59832;51.146;14.024;2022-10-31T02:45:00;98843.72;;;8.24
71960;BMP280;59832;51.146;14.024;2022-10-31T02:47:34;98849.69;;;8.28
71960;BMP280;59832;51.146;14.024;2022-10-31T02:52:43;98849.28;;;8.18
71960;BMP280;59832;51.146;14.024;2022-10-31T02:57:54;98850.19;;;8.13
71960;BMP280;59832;51.146;14.024;2022-10-31T03:00:40;98851.13;;;8.08
71960;BMP280;59832;51.146;14.024;2022-10-31T03:09:14;98849.81;;;8.02
71960;BMP280;59832;51.146;14.024;2022-10-31T03:12:11;98859.56;;;8.12
71960;BMP280;59832;51.146;14.024;2022-10-31T03:14:53;98857.00;;;8.21
71960;BMP280;59832;51.146;14.024;2022-10-31T03:17:28;98868.56;;;8.10
71960;BMP280;59832;51.146;14.024;2022-10-31T03:20:00;98859.44;;;8.18
71960;BMP280;59832;51.146;14.024;2022-10-31T03:22:30;98865.59;;;8.08
71960;BMP280;59832;51.146;14.024;2022-10-31T03:24:58;98861.91;;;7.88
71960;BMP280;59832;51.146;14.024;2022-10-31T03:27:32;98871.41;;;8.00
71960;BMP280;59832;51.146;14.024;2022-10-31T03:30:03;98858.97;;;8.15
71960;BMP280;59832;51.146;14.024;2022-10-31T03:32:42;98866.97;;;7.97
71960;BMP280;59832;51.146;14.024;2022-10-31T03:35:15;98870.34;;;8.09
71960;BMP280;59832;51.146;14.024;2022-10-31T03:37:44;98866.47;;;8.12
71960;BMP280;59832;51.146;14.024;2022-10-31T03:40:12;98872.94;;;7.92
71960;BMP280;59832;51.146;14.024;2022-10-31T03:42:44;98879.59;;;8.05
71960;BMP280;59832;51.146;14.024;2022-10-31T03:45:18;98878.16;;;7.87
71960;BMP280;59832;51.146;14.024;2022-10-31T03:47:47;98878.63;;;7.81
71960;BMP280;59832;51.146;14.024;2022-10-31T03:50:15;98878.81;;;7.84
71960;BMP280;59832;51.146;14.024;2022-10-31T03:53:16;98878.16;;;7.87
71960;BMP280;59832;51.146;14.024;2022-10-31T03:56:02;98879.97;;;7.87
71960;BMP280;59832;51.146;14.024;2022-10-31T03:58:37;98883.88;;;7.84
71960;BMP280;59832;51.146;14.024;2022-10-31T04:01:09;98887.25;;;7.88
71960;BMP280;59832;51.146;14.024;2022-10-31T04:03:41;98881.44;;;7.88
71960;BMP280;59832;51.146;14.024;2022-10-31T04:06:13;98887.25;;;7.88
71960;BMP280;59832;51.146;14.024;2022-10-31T04:08:45;98880.69;;;7.87
71960;BMP280;59832;51.146;14.024;2022-10-31T04:11:21;98880.63;;;7.75
71960;BMP280;59832;51.146;14.024;2022-10-31T04:13:52;98884.72;;;7.88
71960;BMP280;59832;51.146;14.024;2022-10-31T04:16:21;98882.38;;;7.83
71960;BMP280;59832;51.146;14.024;2022-10-31T04:18:51;98887.28;;;7.80
71960;BMP280;59832;51.146;14.024;2022-10-31T04:21:18;98884.81;;;7.62
71960;BMP280;59832;51.146;14.024;2022-10-31T04:23:46;98890.00;;;7.66
71960;BMP280;59832;51.146;14.024;2022-10-31T04:26:13;98885.53;;;7.71
71960;BMP280;59832;51.146;14.024;2022-10-31T04:28:40;98883.91;;;7.76
71960;BMP280;59832;51.146;14.024;2022-10-31T04:31:09;98881.78;;;7.69
71960;BMP280;59832;51.146;14.024;2022-10-31T04:33:36;98882.97;;;7.80
71960;BMP280;59832;51.146;14.024;2022-10-31T04:36:04;98882.66;;;7.82
71960;BMP280;59832;51.146;14.024;2022-10-31T04:38:32;98886.56;;;7.70
71960;BMP280;59832;51.146;14.024;2022-10-31T04:40:59;98892.84;;;7.64
71960;BMP280;59832;51.146;14.024;2022-10-31T04:43:26;98894.50;;;7.52
71960;BMP280;59832;51.146;14.024;2022-10-31T04:45:53;98893.13;;;7.71
71960;BMP280;59832;51.146;14.024;2022-10-31T04:48:20;98893.91;;;7.63
71960;BMP280;59832;51.146;14.024;2022-10-31T04:50:47;98892.25;;;7.67
71960;BMP280;59832;51.146;14.024;2022-10-31T04:53:15;98898.94;;;7.55
71960;BMP280;59832;51.146;14.024;2022-10-31T04:55:42;98891.97;;;7.52
71960;BMP280;59832;51.146;14.024;2022-10-31T04:58:09;98893.63;;;7.48
71960;BMP280;59832;51.146;14.024;2022-10-31T05:00:36;98898.53;;;7.53
71960;BMP280;59832;51.146;14.024;2022-10-31T05:03:03;98898.09;;;7.51
71960;BMP280;59832;51.146;14.024;2022-10-31T05:05:31;98895.22;;;7.61
71960;BMP280;59832;51.146;14.024;2022-10-31T05:07:57;98897.75;;;7.61
71960;BMP280;59832;51.146;14.024;2022-10-31T05:10:26;98906.75;;;7.50
71960;BMP280;59832;51.146;14.024;2022-10-31T05:12:55;98895.69;;;7.63
71960;BMP280;59832;51.146;14.024;2022-10-31T05:15:24;98896.13;;;7.65
71960;BMP280;59832;51.146;14.024;2022-10-31T05:17:52;98892.69;;;7.44
71960;BMP280;59832;51.146;14.024;2022-10-31T05:20:21;98885.53;;;7.54
71960;BMP280;59832;51.146;14.024;2022-10-31T05:22:52;98893.63;;;7.48
71960;BMP280;59832;51.146;14.024;2022-10-31T05:25:21;98902.72;;;7.40
71960;BMP280;59832;51.146;14.024;2022-10-31T05:27:50;98901.38;;;7.43
71960;BMP280;59832;51.146;14.024;2022-10-31T05:30:19;98900.47;;;7.39
71960;BMP280;59832;51.146;14.024;2022-10-31T05:32:49;98901.81;;;7.36
71960;BMP280;59832;51.146;14.024;2022-10-31T05:35:20;98902.44;;;7.42
71960;BMP280;59832;51.146;14.024;2022-10-31T05:37:50;98899.13;;;7.50
71960;BMP280;59832;51.146;14.024;2022-10-31T05:40:19;98899.56;;;7.43
71960;BMP280;59832;51.146;14.024;2022-10-31T05:42:47;98897.63;;;7.49
71960;BMP280;59832;51.146;14.024;2022-10-31T05:45:16;98911.94;;;7.45
71960;BMP280;59832;51.146;14.024;2022-10-31T05:47:53;98911.63;;;7.46
71960;BMP280;59832;51.146;14.024;2022-10-31T05:50:20;98911.06;;;7.41
71960;BMP280;59832;51.146;14.024;2022-10-31T05:52:54;98914.19;;;7.38
71960;BMP280;59832;51.146;14.024;2022-10-31T05:55:24;98908.53;;;7.23
71960;BMP280;59832;51.146;14.024;2022-10-31T05:57:52;98912.69;;;7.28
71960;BMP280;59832;51.146;14.024;2022-10-31T06:00:24;98909.69;;;7.26
71960;BMP280;59832;51.146;14.024;2022-10-31T06:03:03;98912.09;;;7.22
71960;BMP280;59832;51.146;14.024;2022-10-31T06:05:34;98917.16;;;7.22
71960;BMP280;59832;51.146;14.024;2022-10-31T06:08:07;98921.94;;;7.24
71960;BMP280;59832;51.146;14.024;2022-10-31T06:10:46;98926.69;;;7.43
71960;BMP280;59832;51.146;14.024;2022-10-31T06:13:17;98924.75;;;7.31
71960;BMP280;59832;51.146;14.024;2022-10-31T06:15:47;98926.84;;;7.29
71960;BMP280;59832;51.146;14.024;2022-10-31T06:18:16;98928.78;;;7.32
71960;BMP280;59832;51.146;14.024;2022-10-31T06:20:55;98920.56;;;7.35
71960;BMP280;59832;51.146;14.024;2022-10-31T06:23:44;98922.25;;;7.40
71960;BMP280;59832;51.146;14.024;2022-10-31T06:26:22;98934.44;;;7.46
71960;BMP280;59832;51.146;14.024;2022-10-31T06:28:55;98945.16;;;7.43
71960;BMP280;59832;51.146;14.024;2022-10-31T06:31:36;98954.25;;;7.53
71960;BMP280;59832;51.146;14.024;2022-10-31T06:34:07;98946.94;;;7.68
71960;BMP280;59832;51.146;14.024;2022-10-31T06:36:41;98942.59;;;7.69
71960;BMP280;59832;51.146;14.024;2022-10-31T06:39:15;98949.31;;;7.73
71960;BMP280;59832;51.146;14.024;2022-10-31T06:41:42;98954.06;;;7.92
71960;BMP280;59832;51.146;14.024;2022-10-31T06:44:16;98955.41;;;7.90
71960;BMP280;59832;51.146;14.024;2022-10-31T06:46:43;98964.78;;;7.98
71960;BMP280;59832;51.146;14.024;2022-10-31T06:49:12;98957.13;;;8.15
71960;BMP280;59832;51.146;14.024;2022-10-31T06:51:47;98961.88;;;8.25
71960;BMP280;59832;51.146;14.024;2022-10-31T06:54:14;98952.00;;;8.32
71960;BMP280;59832;51.146;14.024;2022-10-31T06:56:41;98962.09;;;8.41
71960;BMP280;59832;51.146;14.024;2022-10-31T06:59:15;98961.63;;;8.47
71960;BMP280;59832;51.146;14.024;2022-10-31T07:01:48;98966.63;;;8.65
71960;BMP280;59832;51.146;14.024;2022-10-31T07:04:17;98971.50;;;8.78
71960;BMP280;59832;51.146;14.024;2022-10-31T07:06:46;98967.66;;;8.93
71960;BMP280;59832;51.146;14.024;2022-10-31T07:09:17;98970.63;;;9.24
71960;BMP280;59832;51.146;14.024;2022-10-31T07:11:45;98981.91;;;9.47
71960;BMP280;59832;51.146;14.024;2022-10-31T07:14:12;98975.53;;;9.74
71960;BMP280;59832;51.146;14.024;2022-10-31T07:16:39;98982.91;;;10.00
71960;BMP280;59832;51.146;14.024;2022-10-31T07:19:07;98975.84;;;10.30
71960;BMP280;59832;51.146;14.024;2022-10-31T07:21:34;98977.66;;;10.54
71960;BMP280;59832;51.146;14.024;2022-10-31T07:24:03;98981.09;;;10.73
71960;BMP280;59832;51.146;14.024;2022-10-31T07:26:36;98976.50;;;11.03
71960;BMP280;59832;51.146;14.024;2022-10-31T07:29:06;98984.19;;;11.47
71960;BMP280;59832;51.146;14.024;2022-10-31T07:31:39;98981.69;;;11.94
71960;BMP280;59832;51.146;14.024;2022-10-31T07:34:06;98976.28;;;12.65
71960;BMP280;59832;51.146;14.024;2022-10-31T07:36:39;98981.78;;;13.02
71960;BMP280;59832;51.146;14.024;2022-10-31T07:39:19;98979.78;;;13.56
71960;BMP280;59832;51.146;14.024;2022-10-31T07:41:50;98981.63;;;13.78
71960;BMP280;59832;51.146;14.024;2022-10-31T07:44:29;98972.41;;;14.26
71960;BMP280;59832;51.146;14.024;2022-10-31T07:46:56;98980.44;;;14.55
71960;BMP280;59832;51.146;14.024;2022-10-31T07:49:23;98983.28;;;14.79
71960;BMP280;59832;51.146;14.024;2022-10-31T07:51:55;98977.84;;;15.21
71960;BMP280;59832;51.146;14.024;2022-10-31T07:54:28;98978.94;;;15.61
71960;BMP280;59832;51.146;14.024;2022-10-31T07:56:55;98978.63;;;15.69
71960;BMP280;59832;51.146;14.024;2022-10-31T07:59:22;98978.59;;;15.73
71960;BMP280;59832;51.146;14.024;2022-10-31T08:01:49;98985.13;;;16.18
71960;BMP280;59832;51.146;14.024;2022-10-31T08:04:16;98978.97;;;16.40
71960;BMP280;59832;51.146;14.024;2022-10-31T08:06:45;98982.75;;;16.64
71960;BMP280;59832;51.146;14.024;2022-10-31T08:09:14;98978.69;;;16.63
71960;BMP280;59832;51.146;14.024;2022-10-31T08:11:45;98976.88;;;16.67
71960;BMP280;59832;51.146;14.024;2022-10-31T08:14:19;98972.91;;;16.98
71960;BMP280;59832;51.146;14.024;2022-10-31T08:16:48;98970.34;;;17.26
71960;BMP280;59832;51.146;14.024;2022-10-31T08:22:02;98975.44;;;17.65
71960;BMP280;59832;51.146;14.024;2022-10-31T08:24:29;98974.97;;;18.05
71960;BMP280;59832;51.146;14.024;2022-10-31T08:26:57;98982.22;;;18.35
71960;BMP280;59832;51.146;14.024;2022-10-31T08:29:23;98968.66;;;18.86
71960;BMP280;59832;51.146;14.024;2022-10-31T08:31:50;98973.97;;;19.13
71960;BMP280;59832;51.146;14.024;2022-10-31T08:34:19;98971.34;;;19.20
71960;BMP280;59832;51.146;14.024;2022-10-31T08:36:45;98971.97;;;19.31
71960;BMP280;59832;51.146;14.024;2022-10-31T08:39:12;98982.69;;;19.29
71960;BMP280;59832;51.146;14.024;2022-10-31T08:41:39;98980.44;;;19.72
71960;BMP280;59832;51.146;14.024;2022-10-31T08:44:05;98977.69;;;19.86
71960;BMP280;59832;51.146;14.024;2022-10-31T08:46:32;98982.84;;;20.16
71960;BMP280;59832;51.146;14.024;2022-10-31T08:48:59;98976.28;;;20.39
71960;BMP280;59832;51.146;14.024;2022-10-31T08:51:25;98975.50;;;20.42
71960;BMP280;59832;51.146;14.024;2022-10-31T08:53:57;98974.97;;;20.27
71960;BMP280;59832;51.146;14.024;2022-10-31T08:56:29;98973.25;;;20.17
71960;BMP280;59832;51.146;14.024;2022-10-31T08:58:56;98970.56;;;20.51
71960;BMP280;59832;51.146;14.024;2022-10-31T09:01:22;98969.63;;;20.11
71960;BMP280;59832;51.146;14.024;2022-10-31T09:03:49;98968.41;;;20.19
71960;BMP280;59832;51.146;14.024;2022-10-31T09:06:16;98977.38;;;20.41
71960;BMP280;59832;51.146;14.024;2022-10-31T09:08:42;98972.06;;;19.95
71960;BMP280;59832;51.146;14.024;2022-10-31T09:11:09;98968.22;;;20.06
71960;BMP280;59832;51.146;14.024;2022-10-31T09:13:35;98973.47;;;19.99
71960;BMP280;59832;51.146;14.024;2022-10-31T09:16:06;98977.72;;;19.83
71960;BMP280;59832;51.146;14.024;2022-10-31T09:18:36;98976.50;;;19.91
71960;BMP280;59832;51.146;14.024;2022-10-31T09:21:05;98968.56;;;20.08
71960;BMP280;59832;51.146;14.024;2022-10-31T09:23:31;98971.13;;;20.08
71960;BMP280;59832;51.146;14.024;2022-10-31T09:26:00;98979.31;;;20.03
71960;BMP280;59832;51.146;14.024;2022-10-31T09:28:29;98984.94;;;19.98
71960;BMP280;59832;51.146;14.024;2022-10-31T09:30:55;98976.44;;;19.98
71960;BMP280;59832;51.146;14.024;2022-10-31T09:33:22;98986.16;;;19.87
71960;BMP280;59832;51.146;14.024;2022-10-31T09:35:49;98987.38;;;20.09
71960;BMP280;59832;51.146;14.024;2022-10-31T09:38:18;98986.06;;;19.94
71960;BMP280;59832;51.146;14.024;2022-10-31T09:41:17;98984.31;;;19.87
71960;BMP280;59832;51.146;14.024;2022-10-31T09:47:26;98976.41;;;20.01
71960;BMP280;59832;51.146;14.024;2022-10-31T09:50:17;98977.94;;;20.26
71960;BMP280;59832;51.146;14.024;2022-10-31T09:52:58;98973.50;;;20.26
71960;BMP280;59832;51.146;14.024;2022-10-31T09:55:36;98975.66;;;20.31
71960;BMP280;59832;51.146;14.024;2022-10-31T09:58:04;98967.09;;;20.34
71960;BMP280;59832;51.146;14.024;2022-10-31T10:00:31;98976.59;;;20.44
71960;BMP280;59832;51.146;14.024;2022-10-31T10:03:38;98980.31;;;20.40
71960;BMP280;59832;51.146;14.024;2022-10-31T10:06:18;98973.16;;;20.51
71960;BMP280;59832;51.146;14.024;2022-10-31T10:08:45;98976.31;;;20.62
71960;BMP280;59832;51.146;14.024;2022-10-31T10:11:20;98969.00;;;20.57
71960;BMP280;59832;51.146;14.024;2022-10-31T10:14:22;98968.88;;;20.64
71960;BMP280;59832;51.146;14.024;2022-10-31T10:20:10;98970.13;;;20.56
71960;BMP280;59832;51.146;14.024;2022-10-31T10:25:38;98966.28;;;20.41
71960;BMP280;59832;51.146;14.024;2022-10-31T10:28:35;98958.03;;;20.23
71960;BMP280;59832;51.146;14.024;2022-10-31T10:31:13;98956.28;;;20.43
71960;BMP280;59832;51.146;14.024;2022-10-31T10:34:02;98955.94;;;20.41
71960;BMP280;59832;51.146;14.024;2022-10-31T10:39:14;98953.75;;;20.39
71960;BMP280;59832;51.146;14.024;2022-10-31T10:41:45;98952.63;;;20.40
71960;BMP280;59832;51.146;14.024;2022-10-31T10:44:14;98951.16;;;20.62
71960;BMP280;59832;51.146;14.024;2022-10-31T10:46:46;98947.59;;;21.03
71960;BMP280;59832;51.146;14.024;2022-10-31T10:49:43;98947.06;;;21.31
71960;BMP280;59832;51.146;14.024;2022-10-31T10:52:38;98941.97;;;21.27
71960;BMP280;59832;51.146;14.024;2022-10-31T10:58:01;98940.56;;;21.43
71960;BMP280;59832;51.146;14.024;2022-10-31T11:00:37;98938.72;;;21.63
71960;BMP280;59832;51.146;14.024;2022-10-31T11:03:04;98935.09;;;21.76
71960;BMP280;59832;51.146;14.024;2022-10-31T11:05:44;98927.06;;;22.07
71960;BMP280;59832;51.146;14.024;2022-10-31T11:08:44;98933.28;;;22.09
71960;BMP280;59832;51.146;14.024;2022-10-31T11:11:29;98926.66;;;22.24
71960;BMP280;59832;51.146;14.024;2022-10-31T11:14:05;98931.00;;;22.43
71960;BMP280;59832;51.146;14.024;2022-10-31T11:18:47;98922.88;;;22.74
71960;BMP280;59832;51.146;14.024;2022-10-31T11:21:24;98924.66;;;22.77
71960;BMP280;59832;51.146;14.024;2022-10-31T11:26:38;98913.19;;;22.45
71960;BMP280;59832;51.146;14.024;2022-10-31T11:29:13;98909.63;;;21.91
71960;BMP280;59832;51.146;14.024;2022-10-31T11:31:40;98912.09;;;21.43
71960;BMP280;59832;51.146;14.024;2022-10-31T11:34:14;98914.19;;;21.08
71960;BMP280;59832;51.146;14.024;2022-10-31T11:36:43;98911.78;;;20.98
71960;BMP280;59832;51.146;14.024;2022-10-31T11:39:20;98906.44;;;20.65
71960;BMP280;59832;51.146;14.024;2022-10-31T11:41:47;98897.84;;;20.49
71960;BMP280;59832;51.146;14.024;2022-10-31T11:44:18;98895.94;;;20.26
71960;BMP280;59832;51.146;14.024;2022-10-31T11:46:47;98893.06;;;20.20
71960;BMP280;59832;51.146;14.024;2022-10-31T11:49:27;98896.94;;;20.09
71960;BMP280;59832;51.146;14.024;2022-10-31T11:51:57;98891.97;;;19.95
71960;BMP280;59832;51.146;14.024;2022-10-31T11:56:53;98895.91;;;20.03
71960;BMP280;59832;51.146;14.024;2022-10-31T11:59:28;98892.00;;;19.91
71960;BMP280;59832;51.146;14.024;2022-10-31T12:01:58;98887.00;;;19.77
71960;BMP280;59832;51.146;14.024;2022-10-31T12:06:54;98878.00;;;19.89
71960;BMP280;59832;51.146;14.024;2022-10-31T12:09:29;98879.22;;;19.81
71960;BMP280;59832;51.146;14.024;2022-10-31T12:17:42;98878.16;;;19.44
71960;BMP280;59832;51.146;14.024;2022-10-31T12:23:20;98876.59;;;19.54
71960;BMP280;59832;51.146;14.024;2022-10-31T12:29:37;98863.97;;;19.59
71960;BMP280;59832;51.146;14.024;2022-10-31T12:32:20;98861.69;;;19.65
71960;BMP280;59832;51.146;14.024;2022-10-31T12:56:11;98842.34;;;19.50
71960;BMP280;59832;51.146;14.024;2022-10-31T12:58:47;98833.47;;;19.51
71960;BMP280;59832;51.146;14.024;2022-10-31T13:01:22;98835.56;;;19.59
71960;BMP280;59832;51.146;14.024;2022-10-31T13:04:15;98829.75;;;19.52
71960;BMP280;59832;51.146;14.024;2022-10-31T13:06:48;98834.75;;;19.36
71960;BMP280;59832;51.146;14.024;2022-10-31T13:09:31;98828.75;;;19.46
71960;BMP280;59832;51.146;14.024;2022-10-31T13:12:11;98825.53;;;19.35
71960;BMP280;59832;51.146;14.024;2022-10-31T13:14:42;98832.91;;;19.36
71960;BMP280;59832;51.146;14.024;2022-10-31T13:17:24;98822.84;;;19.45
71960;BMP280;59832;51.146;14.024;2022-10-31T13:19:57;98818.53;;;19.35
71960;BMP280;59832;51.146;14.024;2022-10-31T13:22:30;98820.38;;;19.38
71960;BMP280;59832;51.146;14.024;2022-10-31T13:27:41;98820.66;;;19.10
71960;BMP280;59832;51.146;14.024;2022-10-31T13:30:18;98817.16;;;18.93
71960;BMP280;59832;51.146;14.024;2022-10-31T13:33:00;98820.81;;;18.96
71960;BMP280;59832;51.146;14.024;2022-10-31T13:35:38;98814.56;;;18.90
71960;BMP280;59832;51.146;14.024;2022-10-31T13:40:50;98803.13;;;18.98
71960;BMP280;59832;51.146;14.024;2022-10-31T13:43:43;98800.19;;;18.96
71960;BMP280;59832;51.146;14.024;2022-10-31T13:46:25;98798.41;;;18.89
71960;BMP280;59832;51.146;14.024;2022-10-31T13:48:51;98791.78;;;18.85
71960;BMP280;59832;51.146;14.024;2022-10-31T13:51:32;98792.38;;;18.99
71960;BMP280;59832;51.146;14.024;2022-10-31T13:54:06;98787.69;;;18.91
71960;BMP280;59832;51.146;14.024;2022-10-31T13:56:49;98789.59;;;18.87
71960;BMP280;59832;51.146;14.024;2022-10-31T13:59:23;98792.19;;;18.83
71960;BMP280;59832;51.146;14.024;2022-10-31T14:01:55;98794.00;;;18.86
71960;BMP280;59832;51.146;14.024;2022-10-31T14:04:24;98783.78;;;18.79
71960;BMP280;59832;51.146;14.024;2022-10-31T14:07:12;98789.34;;;18.74
71960;BMP280;59832;51.146;14.024;2022-10-31T14:10:05;98799.69;;;18.71
71960;BMP280;59832;51.146;14.024;2022-10-31T14:12:41;98792.34;;;18.66
71960;BMP280;59832;51.146;14.024;2022-10-31T14:17:50;98788.72;;;18.60
71960;BMP280;59832;51.146;14.024;2022-10-31T14:22:45;98783.59;;;18.56
71960;BMP280;59832;51.146;14.024;2022-10-31T14:25:33;98777.59;;;18.66
71960;BMP280;59832;51.146;14.024;2022-10-31T14:28:02;98785.41;;;18.59
71960;BMP280;59832;51.146;14.024;2022-10-31T14:30:30;98778.84;;;18.55
71960;BMP280;59832;51.146;14.024;2022-10-31T14:33:04;98778.44;;;18.56
71960;BMP280;59832;51.146;14.024;2022-10-31T14:36:02;98767.78;;;18.54
71960;BMP280;59832;51.146;14.024;2022-10-31T14:38:52;98772.69;;;18.41
71960;BMP280;59832;51.146;14.024;2022-10-31T14:42:27;98775.31;;;18.31
71960;BMP280;59832;51.146;14.024;2022-10-31T14:44:58;98765.06;;;18.27
71960;BMP280;59832;51.146;14.024;2022-10-31T14:47:49;98769.84;;;18.25
71960;BMP280;59832;51.146;14.024;2022-10-31T14:50:52;98759.25;;;18.16
71960;BMP280;59832;51.146;14.024;2022-10-31T14:53:23;98764.09;;;18.07
71960;BMP280;59832;51.146;14.024;2022-10-31T14:55:53;98757.16;;;17.97
71960;BMP280;59832;51.146;14.024;2022-10-31T14:58:44;98755.75;;;17.89
71960;BMP280;59832;51.146;14.024;2022-10-31T15:01:25;98752.13;;;17.79
71960;BMP280;59832;51.146;14.024;2022-10-31T15:03:58;98750.72;;;17.71
71960;BMP280;59832;51.146;14.024;2022-10-31T15:06:50;98744.91;;;17.57
71960;BMP280;59832;51.146;14.024;2022-10-31T15:09:43;98750.50;;;17.37
71960;BMP280;59832;51.146;14.024;2022-10-31T15:12:28;98744.72;;;17.09
71960;BMP280;59832;51.146;14.024;2022-10-31T15:14:55;98746.59;;;16.94
71960;BMP280;59832;51.146;14.024;2022-10-31T15:17:23;98752.91;;;16.82
71960;BMP280;59832;51.146;14.024;2022-10-31T15:19:52;98748.50;;;16.72
71960;BMP280;59832;51.146;14.024;2022-10-31T15:22:22;98748.13;;;16.70
71960;BMP280;59832;51.146;14.024;2022-10-31T15:24:49;98748.84;;;16.53
71960;BMP280;59832;51.146;14.024;2022-10-31T15:27:23;98743.00;;;16.35
71960;BMP280;59832;51.146;14.024;2022-10-31T15:29:51;98738.59;;;16.25
71960;BMP280;59832;51.146;14.024;2022-10-31T15:32:28;98742.25;;;16.20
71960;BMP280;59832;51.146;14.024;2022-10-31T15:34:55;98736.75;;;16.22
71960;BMP280;59832;51.146;14.024;2022-10-31T15:37:25;98737.09;;;16.17
71960;BMP280;59832;51.146;14.024;2022-10-31T15:39:52;98740.78;;;16.12
71960;BMP280;59832;51.146;14.024;2022-10-31T15:42:27;98745.19;;;16.05
71960;BMP280;59832;51.146;14.024;2022-10-31T15:45:16;98735.59;;;15.91
71960;BMP280;59832;51.146;14.024;2022-10-31T15:47:56;98733.00;;;15.80
71960;BMP280;59832;51.146;14.024;2022-10-31T15:50:40;98728.22;;;15.75
71960;BMP280;59832;51.146;14.024;2022-10-31T15:53:20;98730.78;;;15.68
71960;BMP280;59832;51.146;14.024;2022-10-31T15:58:19;98735.13;;;15.54
71960;BMP280;59832;51.146;14.024;2022-10-31T16:01:06;98734.34;;;15.39
71960;BMP280;59832;51.146;14.024;2022-10-31T16:03:43;98732.44;;;15.29
71960;BMP280;59832;51.146;14.024;2022-10-31T16:06:20;98739.03;;;15.26
71960;BMP280;59832;51.146;14.024;2022-10-31T16:08:49;98730.91;;;15.17
71960;BMP280;59832;51.146;14.024;2022-10-31T16:11:23;98725.03;;;15.13
71960;BMP280;59832;51.146;14.024;2022-10-31T16:13:56;98724.25;;;15.06